sensor_id;sensor_type;location;lat;lon;timestamp;P1;durP1;ratioP1;P2;durP2;ratioP2
50012;SDS011;35901;48.694;9.476;2022-08-01T00:01:05;4.33;;;2.63;;
50012;SDS011;35901;48.694;9.476;2022-08-01T00:03:30;3.17;;;2.97;;
50012;SDS011;35901;48.694;9.476;2022-08-01T00:05:57;2.83;;;2.60;;
50012;SDS011;35901;48.694;9.476;2022-08-01T00:08:22;2.87;;;2.60;;
50012;SDS011;35901;48.694;9.476;2022-08-01T00:10:51;4.73;;;3.03;;
50012;SDS011;35901;48.694;9.476;2022-08-01T00:13:16;3.07;;;2.87;;
50012;SDS011;35901;48.694;9.476;2022-08-01T00:15:42;3.03;;;2.83;;
50012;SDS011;35901;48.694;9.476;2022-08-01T00:18:08;2.97;;;2.67;;
50012;SDS011;35901;48.694;9.476;2022-08-01T00:20:33;3.10;;;2.50;;
50012;SDS011;35901;48.694;9.476;2022-08-01T00:23:01;2.93;;;2.73;;
50012;SDS011;35901;48.694;9.476;2022-08-01T00:25:28;3.00;;;2.70;;
50012;SDS011;35901;48.694;9.476;2022-08-01T00:27:53;3.50;;;2.87;;
50012;SDS011;35901;48.694;9.476;2022-08-01T00:30:19;3.07;;;2.80;;
50012;SDS011;35901;48.694;9.476;2022-08-01T00:32:45;3.30;;;3.00;;
50012;SDS011;35901;48.694;9.476;2022-08-01T00:35:10;3.00;;;2.80;;
50012;SDS011;35901;48.694;9.476;2022-08-01T00:37:36;3.00;;;2.70;;
50012;SDS011;35901;48.694;9.476;2022-08-01T00:40:02;3.53;;;2.50;;
50012;SDS011;35901;48.694;9.476;2022-08-01T00:42:28;2.57;;;2.37;;
50012;SDS011;35901;48.694;9.476;2022-08-01T00:44:54;2.70;;;2.50;;
50012;SDS011;35901;48.694;9.476;2022-08-01T00:47:19;3.10;;;2.90;;
50012;SDS011;35901;48.694;9.476;2022-08-01T00:49:45;5.27;;;2.70;;
50012;SDS011;35901;48.694;9.476;2022-08-01T00:52:11;3.40;;;2.70;;
50012;SDS011;35901;48.694;9.476;2022-08-01T00:54:36;3.00;;;2.80;;
50012;SDS011;35901;48.694;9.476;2022-08-01T00:57:02;3.20;;;2.90;;
50012;SDS011;35901;48.694;9.476;2022-08-01T00:59:28;3.13;;;2.50;;
50012;SDS011;35901;48.694;9.476;2022-08-01T01:01:54;2.93;;;2.63;;
50012;SDS011;35901;48.694;9.476;2022-08-01T01:04:20;3.10;;;2.90;;
50012;SDS011;35901;48.694;9.476;2022-08-01T01:09:34;2.80;;;2.60;;
50012;SDS011;35901;48.694;9.476;2022-08-01T01:14:44;2.63;;;2.43;;
50012;SDS011;35901;48.694;9.476;2022-08-01T01:17:46;2.70;;;2.50;;
50012;SDS011;35901;48.694;9.476;2022-08-01T01:20:18;3.87;;;2.67;;
50012;SDS011;35901;48.694;9.476;2022-08-01T01:30:34;2.80;;;2.43;;
50012;SDS011;35901;48.694;9.476;2022-08-01T01:33:02;2.67;;;2.47;;
50012;SDS011;35901;48.694;9.476;2022-08-01T01:35:34;2.70;;;2.50;;
50012;SDS011;35901;48.694;9.476;2022-08-01T01:40:59;2.70;;;2.50;;
50012;SDS011;35901;48.694;9.476;2022-08-01T01:43:27;2.80;;;2.60;;
50012;SDS011;35901;48.694;9.476;2022-08-01T01:45:54;3.23;;;2.70;;
50012;SDS011;35901;48.694;9.476;2022-08-01T01:48:22;3.47;;;3.10;;
50012;SDS011;35901;48.694;9.476;2022-08-01T01:50:50;4.93;;;3.10;;
50012;SDS011;35901;48.694;9.476;2022-08-01T01:53:17;3.20;;;3.00;;
50012;SDS011;35901;48.694;9.476;2022-08-01T01:55:45;2.80;;;2.60;;
50012;SDS011;35901;48.694;9.476;2022-08-01T01:58:14;3.10;;;2.90;;
50012;SDS011;35901;48.694;9.476;2022-08-01T02:00:41;2.67;;;2.47;;
50012;SDS011;35901;48.694;9.476;2022-08-01T02:03:08;3.00;;;2.70;;
50012;SDS011;35901;48.694;9.476;2022-08-01T02:05:36;2.73;;;2.53;;
50012;SDS011;35901;48.694;9.476;2022-08-01T02:08:03;2.57;;;2.43;;
50012;SDS011;35901;48.694;9.476;2022-08-01T02:10:30;4.03;;;2.83;;
50012;SDS011;35901;48.694;9.476;2022-08-01T02:12:57;2.40;;;2.30;;
50012;SDS011;35901;48.694;9.476;2022-08-01T02:15:28;2.57;;;2.37;;
50012;SDS011;35901;48.694;9.476;2022-08-01T02:17:56;2.20;;;2.10;;
50012;SDS011;35901;48.694;9.476;2022-08-01T02:20:23;2.50;;;2.30;;
50012;SDS011;35901;48.694;9.476;2022-08-01T02:22:53;2.90;;;2.70;;
50012;SDS011;35901;48.694;9.476;2022-08-01T02:25:27;2.60;;;2.40;;
50012;SDS011;35901;48.694;9.476;2022-08-01T02:27:58;2.90;;;2.33;;
50012;SDS011;35901;48.694;9.476;2022-08-01T02:30:33;3.17;;;2.60;;
50012;SDS011;35901;48.694;9.476;2022-08-01T02:33:08;2.87;;;2.20;;
50012;SDS011;35901;48.694;9.476;2022-08-01T02:35:38;3.70;;;2.57;;
50012;SDS011;35901;48.694;9.476;2022-08-01T02:38:06;3.20;;;2.73;;
50012;SDS011;35901;48.694;9.476;2022-08-01T02:40:37;3.70;;;2.87;;
50012;SDS011;35901;48.694;9.476;2022-08-01T02:43:08;2.70;;;2.50;;
50012;SDS011;35901;48.694;9.476;2022-08-01T02:45:37;2.90;;;2.70;;
50012;SDS011;35901;48.694;9.476;2022-08-01T02:48:10;3.23;;;3.00;;
50012;SDS011;35901;48.694;9.476;2022-08-01T02:50:38;2.87;;;2.67;;
50012;SDS011;35901;48.694;9.476;2022-08-01T02:53:07;2.80;;;2.60;;
50012;SDS011;35901;48.694;9.476;2022-08-01T02:55:35;3.23;;;2.93;;
50012;SDS011;35901;48.694;9.476;2022-08-01T02:58:03;2.83;;;2.63;;
50012;SDS011;35901;48.694;9.476;2022-08-01T03:00:31;3.23;;;2.93;;
50012;SDS011;35901;48.694;9.476;2022-08-01T03:02:59;2.77;;;2.63;;
50012;SDS011;35901;48.694;9.476;2022-08-01T03:05:27;2.70;;;2.50;;
50012;SDS011;35901;48.694;9.476;2022-08-01T03:07:55;3.00;;;2.70;;
50012;SDS011;35901;48.694;9.476;2022-08-01T03:10:22;3.50;;;2.70;;
50012;SDS011;35901;48.694;9.476;2022-08-01T03:12:52;3.90;;;2.80;;
50012;SDS011;35901;48.694;9.476;2022-08-01T03:15:18;2.83;;;2.63;;
50012;SDS011;35901;48.694;9.476;2022-08-01T03:17:45;3.50;;;2.70;;
50012;SDS011;35901;48.694;9.476;2022-08-01T03:20:13;2.90;;;2.60;;
50012;SDS011;35901;48.694;9.476;2022-08-01T03:22:42;2.97;;;2.77;;
50012;SDS011;35901;48.694;9.476;2022-08-01T03:25:10;3.20;;;3.00;;
50012;SDS011;35901;48.694;9.476;2022-08-01T03:27:38;2.70;;;2.50;;
50012;SDS011;35901;48.694;9.476;2022-08-01T03:30:07;3.40;;;3.10;;
50012;SDS011;35901;48.694;9.476;2022-08-01T03:32:33;3.33;;;3.10;;
50012;SDS011;35901;48.694;9.476;2022-08-01T03:34:59;3.20;;;2.90;;
50012;SDS011;35901;48.694;9.476;2022-08-01T03:40:03;3.20;;;2.93;;
50012;SDS011;35901;48.694;9.476;2022-08-01T03:42:34;3.30;;;3.00;;
50012;SDS011;35901;48.694;9.476;2022-08-01T03:45:07;3.23;;;3.03;;
50012;SDS011;35901;48.694;9.476;2022-08-01T03:47:35;3.20;;;3.00;;
50012;SDS011;35901;48.694;9.476;2022-08-01T03:50:05;5.30;;;3.50;;
50012;SDS011;35901;48.694;9.476;2022-08-01T03:52:33;3.30;;;3.10;;
50012;SDS011;35901;48.694;9.476;2022-08-01T03:55:04;3.13;;;2.93;;
50012;SDS011;35901;48.694;9.476;2022-08-01T03:57:34;2.93;;;2.73;;
50012;SDS011;35901;48.694;9.476;2022-08-01T04:00:01;3.50;;;3.30;;
50012;SDS011;35901;48.694;9.476;2022-08-01T04:02:37;3.87;;;3.57;;
50012;SDS011;35901;48.694;9.476;2022-08-01T04:05:03;2.90;;;2.70;;
50012;SDS011;35901;48.694;9.476;2022-08-01T04:07:31;3.80;;;3.40;;
50012;SDS011;35901;48.694;9.476;2022-08-01T04:09:58;3.53;;;3.23;;
50012;SDS011;35901;48.694;9.476;2022-08-01T04:12:24;3.70;;;3.40;;
50012;SDS011;35901;48.694;9.476;2022-08-01T04:14:49;4.03;;;3.73;;
50012;SDS011;35901;48.694;9.476;2022-08-01T04:17:16;3.43;;;3.13;;
50012;SDS011;35901;48.694;9.476;2022-08-01T04:19:42;3.93;;;3.67;;
50012;SDS011;35901;48.694;9.476;2022-08-01T04:22:13;4.30;;;3.90;;
50012;SDS011;35901;48.694;9.476;2022-08-01T04:24:41;3.80;;;3.50;;
50012;SDS011;35901;48.694;9.476;2022-08-01T04:27:14;3.53;;;3.23;;
50012;SDS011;35901;48.694;9.476;2022-08-01T04:29:44;4.90;;;3.33;;
50012;SDS011;35901;48.694;9.476;2022-08-01T04:32:12;5.20;;;3.70;;
50012;SDS011;35901;48.694;9.476;2022-08-01T04:34:39;3.50;;;3.20;;
50012;SDS011;35901;48.694;9.476;2022-08-01T04:37:11;4.03;;;3.63;;
50012;SDS011;35901;48.694;9.476;2022-08-01T04:39:37;3.97;;;3.50;;
50012;SDS011;35901;48.694;9.476;2022-08-01T04:42:06;3.70;;;3.40;;
50012;SDS011;35901;48.694;9.476;2022-08-01T04:44:33;3.60;;;3.40;;
50012;SDS011;35901;48.694;9.476;2022-08-01T04:47:00;3.60;;;3.30;;
50012;SDS011;35901;48.694;9.476;2022-08-01T04:49:31;3.50;;;3.30;;
50012;SDS011;35901;48.694;9.476;2022-08-01T04:51:57;3.20;;;3.00;;
50012;SDS011;35901;48.694;9.476;2022-08-01T04:54:25;3.60;;;3.33;;
50012;SDS011;35901;48.694;9.476;2022-08-01T04:56:52;3.33;;;3.13;;
50012;SDS011;35901;48.694;9.476;2022-08-01T04:59:34;4.37;;;3.13;;
50012;SDS011;35901;48.694;9.476;2022-08-01T05:02:05;3.40;;;2.80;;
50012;SDS011;35901;48.694;9.476;2022-08-01T05:04:52;3.00;;;2.80;;
50012;SDS011;35901;48.694;9.476;2022-08-01T05:07:17;2.80;;;2.60;;
50012;SDS011;35901;48.694;9.476;2022-08-01T05:09:43;2.60;;;2.47;;
50012;SDS011;35901;48.694;9.476;2022-08-01T05:12:11;3.17;;;2.70;;
50012;SDS011;35901;48.694;9.476;2022-08-01T05:14:37;2.90;;;2.70;;
50012;SDS011;35901;48.694;9.476;2022-08-01T05:17:03;5.53;;;2.90;;
50012;SDS011;35901;48.694;9.476;2022-08-01T05:19:31;2.70;;;2.53;;
50012;SDS011;35901;48.694;9.476;2022-08-01T05:22:04;2.97;;;2.50;;
50012;SDS011;35901;48.694;9.476;2022-08-01T05:24:31;2.77;;;2.57;;
50012;SDS011;35901;48.694;9.476;2022-08-01T05:26:58;2.93;;;2.73;;
50012;SDS011;35901;48.694;9.476;2022-08-01T05:29:24;3.27;;;2.97;;
50012;SDS011;35901;48.694;9.476;2022-08-01T05:31:51;3.27;;;3.03;;
50012;SDS011;35901;48.694;9.476;2022-08-01T05:34:17;3.47;;;2.97;;
50012;SDS011;35901;48.694;9.476;2022-08-01T05:36:43;3.10;;;2.80;;
50012;SDS011;35901;48.694;9.476;2022-08-01T05:39:10;3.60;;;3.30;;
50012;SDS011;35901;48.694;9.476;2022-08-01T05:41:36;3.00;;;2.80;;
50012;SDS011;35901;48.694;9.476;2022-08-01T05:44:02;3.53;;;3.13;;
50012;SDS011;35901;48.694;9.476;2022-08-01T05:46:29;3.40;;;3.10;;
50012;SDS011;35901;48.694;9.476;2022-08-01T05:48:56;3.30;;;3.10;;
50012;SDS011;35901;48.694;9.476;2022-08-01T05:51:26;3.27;;;2.80;;
50012;SDS011;35901;48.694;9.476;2022-08-01T05:53:54;3.97;;;3.00;;
50012;SDS011;35901;48.694;9.476;2022-08-01T05:56:21;3.10;;;2.90;;
50012;SDS011;35901;48.694;9.476;2022-08-01T05:58:53;3.07;;;2.70;;
50012;SDS011;35901;48.694;9.476;2022-08-01T06:01:20;3.20;;;2.90;;
50012;SDS011;35901;48.694;9.476;2022-08-01T06:03:48;2.67;;;2.47;;
50012;SDS011;35901;48.694;9.476;2022-08-01T06:06:15;3.10;;;2.90;;
50012;SDS011;35901;48.694;9.476;2022-08-01T06:08:42;4.10;;;2.60;;
50012;SDS011;35901;48.694;9.476;2022-08-01T06:11:08;2.60;;;2.40;;
50012;SDS011;35901;48.694;9.476;2022-08-01T06:13:35;2.80;;;2.40;;
50012;SDS011;35901;48.694;9.476;2022-08-01T06:16:02;2.47;;;2.27;;
50012;SDS011;35901;48.694;9.476;2022-08-01T06:18:30;5.07;;;2.70;;
50012;SDS011;35901;48.694;9.476;2022-08-01T06:20:56;2.77;;;2.57;;
50012;SDS011;35901;48.694;9.476;2022-08-01T06:23:22;4.67;;;2.50;;
50012;SDS011;35901;48.694;9.476;2022-08-01T06:25:48;2.60;;;2.40;;
50012;SDS011;35901;48.694;9.476;2022-08-01T06:28:16;3.00;;;2.70;;
50012;SDS011;35901;48.694;9.476;2022-08-01T06:30:42;3.33;;;2.57;;
50012;SDS011;35901;48.694;9.476;2022-08-01T06:33:08;3.37;;;2.60;;
50012;SDS011;35901;48.694;9.476;2022-08-01T06:35:34;3.13;;;2.63;;
50012;SDS011;35901;48.694;9.476;2022-08-01T06:38:00;2.63;;;2.43;;
50012;SDS011;35901;48.694;9.476;2022-08-01T06:40:26;3.83;;;2.83;;
50012;SDS011;35901;48.694;9.476;2022-08-01T06:42:52;2.53;;;2.30;;
50012;SDS011;35901;48.694;9.476;2022-08-01T06:45:17;2.50;;;2.23;;
50012;SDS011;35901;48.694;9.476;2022-08-01T06:47:44;2.40;;;2.27;;
50012;SDS011;35901;48.694;9.476;2022-08-01T06:50:10;2.20;;;2.10;;
50012;SDS011;35901;48.694;9.476;2022-08-01T06:52:36;2.50;;;2.27;;
50012;SDS011;35901;48.694;9.476;2022-08-01T06:55:03;2.50;;;2.30;;
50012;SDS011;35901;48.694;9.476;2022-08-01T06:57:29;3.43;;;2.40;;
50012;SDS011;35901;48.694;9.476;2022-08-01T06:59:55;2.50;;;2.30;;
50012;SDS011;35901;48.694;9.476;2022-08-01T07:02:21;2.17;;;2.07;;
50012;SDS011;35901;48.694;9.476;2022-08-01T07:04:47;2.40;;;2.23;;
50012;SDS011;35901;48.694;9.476;2022-08-01T07:07:13;2.00;;;1.90;;
50012;SDS011;35901;48.694;9.476;2022-08-01T07:09:38;2.90;;;2.43;;
50012;SDS011;35901;48.694;9.476;2022-08-01T07:12:06;2.50;;;2.30;;
50012;SDS011;35901;48.694;9.476;2022-08-01T07:14:32;3.30;;;2.40;;
50012;SDS011;35901;48.694;9.476;2022-08-01T07:16:58;3.97;;;2.00;;
50012;SDS011;35901;48.694;9.476;2022-08-01T07:19:24;2.57;;;2.33;;
50012;SDS011;35901;48.694;9.476;2022-08-01T07:21:51;2.40;;;2.20;;
50012;SDS011;35901;48.694;9.476;2022-08-01T07:24:17;2.30;;;2.00;;
50012;SDS011;35901;48.694;9.476;2022-08-01T07:26:44;3.33;;;2.20;;
50012;SDS011;35901;48.694;9.476;2022-08-01T07:29:11;3.40;;;2.13;;
50012;SDS011;35901;48.694;9.476;2022-08-01T07:31:37;2.97;;;2.43;;
50012;SDS011;35901;48.694;9.476;2022-08-01T07:34:03;2.43;;;2.10;;
50012;SDS011;35901;48.694;9.476;2022-08-01T07:36:29;2.13;;;1.93;;
50012;SDS011;35901;48.694;9.476;2022-08-01T07:38:55;2.37;;;2.10;;
50012;SDS011;35901;48.694;9.476;2022-08-01T07:41:20;2.10;;;1.90;;
50012;SDS011;35901;48.694;9.476;2022-08-01T07:43:46;2.77;;;2.07;;
50012;SDS011;35901;48.694;9.476;2022-08-01T07:46:14;2.93;;;1.80;;
50012;SDS011;35901;48.694;9.476;2022-08-01T07:48:40;6.40;;;2.30;;
50012;SDS011;35901;48.694;9.476;2022-08-01T07:51:06;2.87;;;2.10;;
50012;SDS011;35901;48.694;9.476;2022-08-01T07:53:33;2.60;;;1.93;;
50012;SDS011;35901;48.694;9.476;2022-08-01T07:55:59;2.13;;;2.00;;
50012;SDS011;35901;48.694;9.476;2022-08-01T07:58:25;2.67;;;1.90;;
50012;SDS011;35901;48.694;9.476;2022-08-01T08:00:50;2.07;;;1.87;;
50012;SDS011;35901;48.694;9.476;2022-08-01T08:03:16;2.00;;;1.90;;
50012;SDS011;35901;48.694;9.476;2022-08-01T08:05:42;2.50;;;2.30;;
50012;SDS011;35901;48.694;9.476;2022-08-01T08:08:08;2.50;;;2.30;;
50012;SDS011;35901;48.694;9.476;2022-08-01T08:10:35;2.17;;;2.07;;
50012;SDS011;35901;48.694;9.476;2022-08-01T08:13:01;2.30;;;2.10;;
50012;SDS011;35901;48.694;9.476;2022-08-01T08:15:28;2.20;;;2.10;;
50012;SDS011;35901;48.694;9.476;2022-08-01T08:17:54;2.17;;;2.00;;
50012;SDS011;35901;48.694;9.476;2022-08-01T08:20:20;2.00;;;1.90;;
50012;SDS011;35901;48.694;9.476;2022-08-01T08:22:52;1.87;;;1.77;;
50012;SDS011;35901;48.694;9.476;2022-08-01T08:25:18;1.93;;;1.83;;
50012;SDS011;35901;48.694;9.476;2022-08-01T08:27:44;1.80;;;1.70;;
50012;SDS011;35901;48.694;9.476;2022-08-01T08:30:13;2.13;;;1.90;;
50012;SDS011;35901;48.694;9.476;2022-08-01T08:32:39;1.83;;;1.73;;
50012;SDS011;35901;48.694;9.476;2022-08-01T08:35:05;3.13;;;2.20;;
50012;SDS011;35901;48.694;9.476;2022-08-01T08:37:32;2.05;;;1.95;;
50012;SDS011;35901;48.694;9.476;2022-08-01T08:39:58;2.83;;;2.00;;
50012;SDS011;35901;48.694;9.476;2022-08-01T08:42:23;2.67;;;2.08;;
50012;SDS011;35901;48.694;9.476;2022-08-01T08:44:50;2.10;;;1.90;;
50012;SDS011;35901;48.694;9.476;2022-08-01T08:47:29;2.40;;;2.20;;
50012;SDS011;35901;48.694;9.476;2022-08-01T08:50:00;2.05;;;1.95;;
50012;SDS011;35901;48.694;9.476;2022-08-01T08:52:28;2.28;;;2.08;;
50012;SDS011;35901;48.694;9.476;2022-08-01T08:54:55;3.67;;;2.00;;
50012;SDS011;35901;48.694;9.476;2022-08-01T08:57:22;2.10;;;2.00;;
50012;SDS011;35901;48.694;9.476;2022-08-01T08:59:48;2.35;;;1.80;;
50012;SDS011;35901;48.694;9.476;2022-08-01T09:02:16;2.40;;;2.30;;
50012;SDS011;35901;48.694;9.476;2022-08-01T09:04:46;3.75;;;2.40;;
50012;SDS011;35901;48.694;9.476;2022-08-01T09:07:14;2.17;;;1.88;;
50012;SDS011;35901;48.694;9.476;2022-08-01T09:09:40;2.35;;;2.25;;
50012;SDS011;35901;48.694;9.476;2022-08-01T09:12:06;2.37;;;2.07;;
50012;SDS011;35901;48.694;9.476;2022-08-01T09:14:31;2.47;;;2.13;;
50012;SDS011;35901;48.694;9.476;2022-08-01T09:17:10;2.40;;;2.20;;
50012;SDS011;35901;48.694;9.476;2022-08-01T09:19:43;2.20;;;2.10;;
50012;SDS011;35901;48.694;9.476;2022-08-01T09:22:18;2.25;;;2.05;;
50012;SDS011;35901;48.694;9.476;2022-08-01T09:27:26;3.97;;;2.42;;
50012;SDS011;35901;48.694;9.476;2022-08-01T09:29:53;2.40;;;2.20;;
50012;SDS011;35901;48.694;9.476;2022-08-01T09:32:20;2.10;;;2.00;;
50012;SDS011;35901;48.694;9.476;2022-08-01T09:38:20;2.45;;;2.25;;
50012;SDS011;35901;48.694;9.476;2022-08-01T09:40:53;5.00;;;2.53;;
50012;SDS011;35901;48.694;9.476;2022-08-01T09:43:20;2.55;;;2.35;;
50012;SDS011;35901;48.694;9.476;2022-08-01T09:45:47;3.83;;;2.70;;
50012;SDS011;35901;48.694;9.476;2022-08-01T09:48:13;2.80;;;2.60;;
50012;SDS011;35901;48.694;9.476;2022-08-01T09:50:41;2.70;;;2.50;;
50012;SDS011;35901;48.694;9.476;2022-08-01T09:53:09;2.70;;;2.50;;
50012;SDS011;35901;48.694;9.476;2022-08-01T09:55:36;2.73;;;2.53;;
50012;SDS011;35901;48.694;9.476;2022-08-01T09:58:03;3.37;;;2.57;;
50012;SDS011;35901;48.694;9.476;2022-08-01T10:00:30;3.30;;;3.00;;
50012;SDS011;35901;48.694;9.476;2022-08-01T10:02:57;2.90;;;2.70;;
50012;SDS011;35901;48.694;9.476;2022-08-01T10:05:33;3.50;;;3.20;;
50012;SDS011;35901;48.694;9.476;2022-08-01T10:08:03;3.00;;;2.80;;
50012;SDS011;35901;48.694;9.476;2022-08-01T10:10:30;3.40;;;3.10;;
50012;SDS011;35901;48.694;9.476;2022-08-01T10:12:57;3.10;;;2.90;;
50012;SDS011;35901;48.694;9.476;2022-08-01T10:15:24;3.10;;;2.70;;
50012;SDS011;35901;48.694;9.476;2022-08-01T10:17:55;4.07;;;3.00;;
50012;SDS011;35901;48.694;9.476;2022-08-01T10:20:26;3.13;;;2.93;;
50012;SDS011;35901;48.694;9.476;2022-08-01T10:22:54;3.57;;;3.37;;
50012;SDS011;35901;48.694;9.476;2022-08-01T10:25:22;4.27;;;3.40;;
50012;SDS011;35901;48.694;9.476;2022-08-01T10:27:52;4.03;;;3.30;;
50012;SDS011;35901;48.694;9.476;2022-08-01T10:30:21;3.33;;;3.10;;
50012;SDS011;35901;48.694;9.476;2022-08-01T10:32:48;3.53;;;3.10;;
50012;SDS011;35901;48.694;9.476;2022-08-01T10:35:15;3.37;;;3.07;;
50012;SDS011;35901;48.694;9.476;2022-08-01T10:37:44;3.10;;;2.80;;
50012;SDS011;35901;48.694;9.476;2022-08-01T10:40:14;3.50;;;3.30;;
50012;SDS011;35901;48.694;9.476;2022-08-01T10:42:44;3.45;;;3.22;;
50012;SDS011;35901;48.694;9.476;2022-08-01T10:45:11;3.65;;;3.30;;
50012;SDS011;35901;48.694;9.476;2022-08-01T10:50:29;3.60;;;3.30;;
50012;SDS011;35901;48.694;9.476;2022-08-01T10:53:15;3.70;;;3.40;;
50012;SDS011;35901;48.694;9.476;2022-08-01T11:11:56;4.57;;;4.17;;
50012;SDS011;35901;48.694;9.476;2022-08-01T11:14:23;4.50;;;4.10;;
50012;SDS011;35901;48.694;9.476;2022-08-01T11:16:48;4.73;;;3.70;;
50012;SDS011;35901;48.694;9.476;2022-08-01T11:19:14;4.53;;;4.13;;
50012;SDS011;35901;48.694;9.476;2022-08-01T11:27:26;5.50;;;4.10;;
50012;SDS011;35901;48.694;9.476;2022-08-01T11:35:13;4.50;;;3.80;;
50012;SDS011;35901;48.694;9.476;2022-08-01T11:37:39;3.90;;;3.60;;
50012;SDS011;35901;48.694;9.476;2022-08-01T11:40:18;4.03;;;3.63;;
50012;SDS011;35901;48.694;9.476;2022-08-01T11:45:53;3.28;;;3.08;;
50012;SDS011;35901;48.694;9.476;2022-08-01T11:48:21;3.33;;;3.03;;
50012;SDS011;35901;48.694;9.476;2022-08-01T11:50:49;3.10;;;2.80;;
50012;SDS011;35901;48.694;9.476;2022-08-01T11:53:16;2.90;;;2.70;;
50012;SDS011;35901;48.694;9.476;2022-08-01T11:55:45;2.95;;;2.75;;
50012;SDS011;35901;48.694;9.476;2022-08-01T11:58:12;3.08;;;2.78;;
50012;SDS011;35901;48.694;9.476;2022-08-01T12:00:37;3.57;;;2.73;;
50012;SDS011;35901;48.694;9.476;2022-08-01T12:03:05;2.83;;;2.60;;
50012;SDS011;35901;48.694;9.476;2022-08-01T12:05:34;3.00;;;2.80;;
50012;SDS011;35901;48.694;9.476;2022-08-01T12:08:02;2.70;;;2.50;;
50012;SDS011;35901;48.694;9.476;2022-08-01T12:10:30;3.23;;;2.80;;
50012;SDS011;35901;48.694;9.476;2022-08-01T12:13:06;3.20;;;2.90;;
50012;SDS011;35901;48.694;9.476;2022-08-01T12:15:35;3.40;;;3.20;;
50012;SDS011;35901;48.694;9.476;2022-08-01T12:18:05;3.10;;;2.90;;
50012;SDS011;35901;48.694;9.476;2022-08-01T12:20:33;3.00;;;2.80;;
50012;SDS011;35901;48.694;9.476;2022-08-01T12:23:01;3.07;;;2.77;;
50012;SDS011;35901;48.694;9.476;2022-08-01T12:25:32;3.20;;;3.00;;
50012;SDS011;35901;48.694;9.476;2022-08-01T12:28:03;3.07;;;2.77;;
50012;SDS011;35901;48.694;9.476;2022-08-01T12:30:30;2.73;;;2.53;;
50012;SDS011;35901;48.694;9.476;2022-08-01T12:33:00;2.90;;;2.70;;
50012;SDS011;35901;48.694;9.476;2022-08-01T12:35:28;2.90;;;2.70;;
50012;SDS011;35901;48.694;9.476;2022-08-01T12:40:21;2.90;;;2.70;;
50012;SDS011;35901;48.694;9.476;2022-08-01T12:42:57;2.80;;;2.60;;
50012;SDS011;35901;48.694;9.476;2022-08-01T12:45:28;2.90;;;2.70;;
50012;SDS011;35901;48.694;9.476;2022-08-01T12:47:58;2.50;;;2.40;;
50012;SDS011;35901;48.694;9.476;2022-08-01T12:50:25;3.47;;;2.70;;
50012;SDS011;35901;48.694;9.476;2022-08-01T12:52:55;2.80;;;2.60;;
50012;SDS011;35901;48.694;9.476;2022-08-01T12:55:25;2.50;;;2.40;;
50012;SDS011;35901;48.694;9.476;2022-08-01T12:58:05;3.13;;;2.83;;
50012;SDS011;35901;48.694;9.476;2022-08-01T13:00:32;2.80;;;2.60;;
50012;SDS011;35901;48.694;9.476;2022-08-01T13:03:03;2.90;;;2.70;;
50012;SDS011;35901;48.694;9.476;2022-08-01T13:05:47;2.53;;;2.43;;
50012;SDS011;35901;48.694;9.476;2022-08-01T13:08:16;2.70;;;2.37;;
50012;SDS011;35901;48.694;9.476;2022-08-01T13:10:46;2.63;;;2.47;;
50012;SDS011;35901;48.694;9.476;2022-08-01T13:13:12;2.97;;;2.77;;
50012;SDS011;35901;48.694;9.476;2022-08-01T13:15:40;3.47;;;2.53;;
50012;SDS011;35901;48.694;9.476;2022-08-01T13:18:21;2.83;;;2.58;;
50012;SDS011;35901;48.694;9.476;2022-08-01T13:23:37;2.77;;;2.57;;
50012;SDS011;35901;48.694;9.476;2022-08-01T13:26:06;2.57;;;2.47;;
50012;SDS011;35901;48.694;9.476;2022-08-01T13:28:33;2.67;;;2.47;;
50012;SDS011;35901;48.694;9.476;2022-08-01T13:33:49;2.35;;;2.25;;
50012;SDS011;35901;48.694;9.476;2022-08-01T13:36:15;3.00;;;2.33;;
50012;SDS011;35901;48.694;9.476;2022-08-01T13:38:41;2.25;;;2.13;;
50012;SDS011;35901;48.694;9.476;2022-08-01T13:41:26;3.35;;;2.30;;
50012;SDS011;35901;48.694;9.476;2022-08-01T13:43:52;2.30;;;2.20;;
50012;SDS011;35901;48.694;9.476;2022-08-01T13:46:18;2.75;;;2.30;;
50012;SDS011;35901;48.694;9.476;2022-08-01T13:48:44;2.70;;;2.25;;
50012;SDS011;35901;48.694;9.476;2022-08-01T13:51:10;3.22;;;2.17;;
50012;SDS011;35901;48.694;9.476;2022-08-01T13:53:35;2.00;;;1.90;;
50012;SDS011;35901;48.694;9.476;2022-08-01T13:56:01;2.63;;;2.15;;
50012;SDS011;35901;48.694;9.476;2022-08-01T13:58:27;2.92;;;2.38;;
50012;SDS011;35901;48.694;9.476;2022-08-01T14:00:54;2.30;;;2.10;;
50012;SDS011;35901;48.694;9.476;2022-08-01T14:03:20;2.28;;;2.17;;
50012;SDS011;35901;48.694;9.476;2022-08-01T14:05:46;2.37;;;2.17;;
50012;SDS011;35901;48.694;9.476;2022-08-01T14:08:12;2.30;;;2.10;;
50012;SDS011;35901;48.694;9.476;2022-08-01T14:10:38;2.27;;;2.07;;
50012;SDS011;35901;48.694;9.476;2022-08-01T14:13:04;3.30;;;2.60;;
50012;SDS011;35901;48.694;9.476;2022-08-01T14:15:30;2.00;;;1.90;;
50012;SDS011;35901;48.694;9.476;2022-08-01T14:17:57;2.43;;;2.20;;
50012;SDS011;35901;48.694;9.476;2022-08-01T14:20:24;2.37;;;2.27;;
50012;SDS011;35901;48.694;9.476;2022-08-01T14:22:49;3.07;;;2.50;;
50012;SDS011;35901;48.694;9.476;2022-08-01T14:25:15;2.60;;;2.13;;
50012;SDS011;35901;48.694;9.476;2022-08-01T14:27:43;2.47;;;2.27;;
50012;SDS011;35901;48.694;9.476;2022-08-01T14:30:10;2.30;;;2.10;;
50012;SDS011;35901;48.694;9.476;2022-08-01T14:32:37;2.37;;;2.07;;
50012;SDS011;35901;48.694;9.476;2022-08-01T14:35:03;2.30;;;2.20;;
50012;SDS011;35901;48.694;9.476;2022-08-01T14:37:31;2.37;;;2.27;;
50012;SDS011;35901;48.694;9.476;2022-08-01T14:39:58;2.20;;;2.00;;
50012;SDS011;35901;48.694;9.476;2022-08-01T14:42:30;2.47;;;2.00;;
50012;SDS011;35901;48.694;9.476;2022-08-01T14:44:57;2.00;;;1.90;;
50012;SDS011;35901;48.694;9.476;2022-08-01T14:47:39;2.33;;;2.10;;
50012;SDS011;35901;48.694;9.476;2022-08-01T14:50:06;2.23;;;2.10;;
50012;SDS011;35901;48.694;9.476;2022-08-01T14:52:36;2.00;;;1.90;;
50012;SDS011;35901;48.694;9.476;2022-08-01T14:55:04;2.53;;;2.23;;
50012;SDS011;35901;48.694;9.476;2022-08-01T14:57:31;2.23;;;2.13;;
50012;SDS011;35901;48.694;9.476;2022-08-01T14:59:57;2.03;;;1.93;;
50012;SDS011;35901;48.694;9.476;2022-08-01T15:02:25;2.30;;;2.10;;
50012;SDS011;35901;48.694;9.476;2022-08-01T15:05:01;1.90;;;1.80;;
50012;SDS011;35901;48.694;9.476;2022-08-01T15:07:27;2.80;;;2.03;;
50012;SDS011;35901;48.694;9.476;2022-08-01T15:09:54;2.10;;;1.90;;
50012;SDS011;35901;48.694;9.476;2022-08-01T15:12:19;3.03;;;2.23;;
50012;SDS011;35901;48.694;9.476;2022-08-01T15:14:48;1.93;;;1.83;;
50012;SDS011;35901;48.694;9.476;2022-08-01T15:17:22;2.97;;;1.73;;
50012;SDS011;35901;48.694;9.476;2022-08-01T15:19:50;2.77;;;1.83;;
50012;SDS011;35901;48.694;9.476;2022-08-01T15:22:21;3.80;;;2.20;;
50012;SDS011;35901;48.694;9.476;2022-08-01T15:24:49;4.80;;;1.93;;
50012;SDS011;35901;48.694;9.476;2022-08-01T15:27:15;1.90;;;1.80;;
50012;SDS011;35901;48.694;9.476;2022-08-01T15:29:42;2.03;;;1.93;;
50012;SDS011;35901;48.694;9.476;2022-08-01T15:32:10;2.10;;;2.00;;
50012;SDS011;35901;48.694;9.476;2022-08-01T15:34:37;2.10;;;2.00;;
50012;SDS011;35901;48.694;9.476;2022-08-01T15:37:03;3.10;;;2.10;;
50012;SDS011;35901;48.694;9.476;2022-08-01T15:39:30;5.30;;;2.00;;
50012;SDS011;35901;48.694;9.476;2022-08-01T15:42:02;1.97;;;1.87;;
50012;SDS011;35901;48.694;9.476;2022-08-01T15:44:40;1.90;;;1.80;;
50012;SDS011;35901;48.694;9.476;2022-08-01T15:47:06;2.10;;;2.00;;
50012;SDS011;35901;48.694;9.476;2022-08-01T15:49:33;2.20;;;2.10;;
50012;SDS011;35901;48.694;9.476;2022-08-01T15:52:01;2.20;;;1.97;;
50012;SDS011;35901;48.694;9.476;2022-08-01T15:54:28;2.50;;;1.87;;
50012;SDS011;35901;48.694;9.476;2022-08-01T15:56:54;2.30;;;2.10;;
50012;SDS011;35901;48.694;9.476;2022-08-01T15:59:20;2.57;;;2.37;;